createdAt,value
2022-11-01T00:01:52.962Z,9.50
2022-11-01T00:04:20.160Z,9.50
2022-11-01T00:06:47.361Z,9.60
2022-11-01T00:09:14.396Z,9.60
2022-11-01T00:11:41.425Z,9.60
2022-11-01T00:14:08.462Z,9.70
2022-11-01T00:16:35.489Z,9.80
2022-11-01T00:19:02.593Z,9.80
2022-11-01T00:21:29.635Z,9.70
2022-11-01T00:23:56.659Z,9.70
2022-11-01T00:26:24.209Z,9.70
2022-11-01T00:28:51.357Z,9.60
2022-11-01T00:31:18.892Z,9.60
2022-11-01T00:33:45.947Z,9.60
2022-11-01T00:36:13.019Z,9.60
2022-11-01T00:38:40.143Z,9.60
2022-11-01T00:41:07.204Z,9.60
2022-11-01T00:43:34.597Z,9.60
2022-11-01T00:46:01.694Z,9.50
2022-11-01T00:48:28.823Z,9.40
2022-11-01T00:50:55.851Z,9.40
2022-11-01T00:53:22.857Z,9.40
2022-11-01T00:55:49.863Z,9.40
2022-11-01T00:58:16.872Z,9.40
2022-11-01T01:00:43.986Z,9.30
2022-11-01T01:03:11.054Z,9.30
2022-11-01T01:05:38.082Z,9.20
2022-11-01T01:08:05.289Z,9.20
2022-11-01T01:10:32.351Z,9.20
2022-11-01T01:12:59.691Z,9.10
2022-11-01T01:15:26.932Z,9.10
2022-11-01T01:17:54.141Z,9.10
2022-11-01T01:20:21.260Z,9.20
2022-11-01T01:22:48.383Z,9.30
2022-11-01T01:25:15.559Z,9.30
2022-11-01T01:27:42.585Z,9.30
2022-11-01T01:30:09.769Z,9.40
2022-11-01T01:32:36.789Z,9.40
2022-11-01T01:35:03.946Z,9.40
2022-11-01T01:37:30.964Z,9.40
2022-11-01T01:39:57.993Z,9.40
2022-11-01T01:42:31.211Z,9.40
2022-11-01T01:44:58.243Z,9.40
2022-11-01T01:47:29.101Z,9.50
2022-11-01T01:50:16.389Z,9.40
2022-11-01T01:52:46.380Z,9.40
2022-11-01T01:55:13.572Z,9.30
2022-11-01T01:57:40.701Z,9.30
2022-11-01T02:00:08.187Z,9.30
2022-11-01T02:02:38.343Z,9.30
2022-11-01T02:05:17.213Z,9.30
2022-11-01T02:07:44.451Z,9.30
2022-11-01T02:10:11.666Z,9.30
2022-11-01T02:12:38.708Z,9.20
2022-11-01T02:15:13.454Z,9.20
2022-11-01T02:17:43.745Z,9.10
2022-11-01T02:20:13.891Z,9.10
2022-11-01T02:23:05.691Z,9.10
2022-11-01T02:25:38.821Z,9.00
2022-11-01T02:28:14.485Z,9.10
2022-11-01T02:31:03.534Z,9.10
2022-11-01T02:33:59.924Z,9.00
2022-11-01T02:36:35.817Z,9.00
2022-11-01T02:39:21.995Z,9.00
2022-11-01T02:41:52.101Z,9.00
2022-11-01T02:44:20.593Z,9.00
2022-11-01T02:47:02.875Z,9.00
2022-11-01T02:49:34.200Z,9.10
2022-11-01T02:52:01.471Z,9.10
2022-11-01T02:54:31.346Z,9.10
2022-11-01T02:57:03.407Z,9.20
2022-11-01T02:59:30.429Z,9.30
2022-11-01T03:02:08.584Z,9.50
2022-11-01T03:04:35.702Z,9.50
2022-11-01T03:07:04.261Z,9.60
2022-11-01T03:09:31.577Z,9.70
2022-11-01T03:12:05.393Z,9.70
2022-11-01T03:14:33.957Z,9.80
2022-11-01T03:17:32.587Z,9.80
2022-11-01T03:19:59.629Z,9.80
2022-11-01T03:22:31.090Z,9.80
2022-11-01T03:25:35.248Z,9.70
2022-11-01T03:28:12.361Z,9.70
2022-11-01T03:30:42.892Z,9.70
2022-11-01T03:33:11.358Z,9.70
2022-11-01T03:35:38.360Z,9.60
2022-11-01T03:38:09.637Z,9.60
2022-11-01T03:40:36.641Z,9.50
2022-11-01T03:43:06.908Z,9.50
2022-11-01T03:45:34.036Z,9.50
2022-11-01T03:48:01.469Z,9.40
2022-11-01T03:50:28.933Z,9.40
2022-11-01T03:52:55.967Z,9.40
2022-11-01T03:55:23.096Z,9.40
2022-11-01T03:57:54.035Z,9.30
2022-11-01T04:00:25.369Z,9.30
2022-11-01T04:02:53.316Z,9.30
2022-11-01T04:05:20.702Z,9.30
2022-11-01T04:07:47.790Z,9.20
2022-11-01T04:10:14.987Z,9.10
2022-11-01T04:12:43.924Z,9.00
2022-11-01T04:15:29.826Z,9.00
2022-11-01T04:18:35.159Z,9.00
2022-11-01T04:21:03.231Z,8.90
2022-11-01T04:23:30.352Z,8.80
2022-11-01T04:25:57.364Z,8.80
2022-11-01T04:28:24.385Z,8.80
2022-11-01T04:30:51.480Z,8.80
2022-11-01T04:33:18.496Z,8.80
2022-11-01T04:35:45.692Z,8.70
2022-11-01T04:38:12.761Z,8.70
2022-11-01T04:40:40.102Z,8.80
2022-11-01T04:43:07.185Z,8.70
2022-11-01T04:45:34.252Z,8.80
2022-11-01T04:48:02.207Z,8.80
2022-11-01T04:50:29.452Z,8.80
2022-11-01T04:52:57.601Z,8.80
2022-11-01T04:55:24.620Z,8.80
2022-11-01T04:57:51.629Z,8.80
2022-11-01T05:00:18.657Z,8.80
2022-11-01T05:02:45.741Z,8.80
2022-11-01T05:05:13.069Z,8.90
2022-11-01T05:07:40.077Z,8.90
2022-11-01T05:10:07.400Z,8.90
2022-11-01T05:12:34.625Z,8.90
2022-11-01T05:15:01.685Z,8.90
2022-11-01T05:17:28.851Z,8.90
2022-11-01T05:19:55.896Z,8.90
2022-11-01T05:22:22.896Z,8.90
2022-11-01T05:24:49.884Z,8.80
2022-11-01T05:27:16.919Z,8.70
2022-11-01T05:29:43.935Z,8.80
2022-11-01T05:32:10.941Z,8.70
2022-11-01T05:34:37.978Z,8.80
2022-11-01T05:37:04.976Z,8.80
2022-11-01T05:39:31.972Z,8.80
2022-11-01T05:42:01.808Z,8.80
2022-11-01T05:44:30.056Z,8.70
2022-11-01T05:46:57.075Z,8.80
2022-11-01T05:49:24.631Z,8.80
2022-11-01T05:51:51.696Z,8.70
2022-11-01T05:54:18.713Z,8.70
2022-11-01T05:56:45.724Z,8.80
2022-11-01T05:59:12.744Z,8.90
2022-11-01T06:01:40.253Z,8.90
2022-11-01T06:04:07.350Z,9.10
2022-11-01T06:06:34.376Z,9.10
2022-11-01T06:09:01.676Z,9.30
2022-11-01T06:11:28.792Z,9.30
2022-11-01T06:13:56.140Z,9.40
2022-11-01T06:16:23.229Z,9.50
2022-11-01T06:18:50.340Z,9.50
2022-11-01T06:21:17.372Z,9.50
2022-11-01T06:23:48.116Z,9.50
2022-11-01T06:26:15.125Z,9.60
2022-11-01T06:28:42.139Z,9.70
2022-11-01T06:31:09.153Z,9.70
2022-11-01T06:33:36.228Z,9.80
2022-11-01T06:36:03.372Z,9.80
2022-11-01T06:38:30.390Z,9.80
2022-11-01T06:40:57.492Z,9.90
2022-11-01T06:43:24.500Z,9.90
2022-11-01T06:45:51.520Z,10.10
2022-11-01T06:48:18.516Z,10.20
2022-11-01T06:50:45.532Z,10.30
2022-11-01T06:53:12.614Z,10.50
2022-11-01T06:55:39.662Z,10.50
2022-11-01T06:58:06.853Z,10.60
2022-11-01T07:00:33.993Z,10.70
2022-11-01T07:03:05.225Z,10.80
2022-11-01T07:05:36.078Z,10.90
2022-11-01T07:08:05.427Z,11.00
2022-11-01T07:10:32.664Z,11.10
2022-11-01T07:13:00.104Z,11.10
2022-11-01T07:15:27.385Z,11.30
2022-11-01T07:17:55.020Z,11.40
2022-11-01T07:20:22.349Z,11.40
2022-11-01T07:22:56.341Z,11.50
2022-11-01T07:25:23.380Z,11.50
2022-11-01T07:27:50.404Z,11.60
2022-11-01T07:30:17.520Z,11.80
2022-11-01T07:32:44.537Z,11.80
2022-11-01T07:35:11.552Z,12.00
2022-11-01T07:37:38.570Z,12.10
2022-11-01T07:40:05.825Z,12.20
2022-11-01T07:42:32.834Z,12.40
2022-11-01T07:44:59.866Z,12.50
2022-11-01T07:47:26.876Z,12.70
2022-11-01T07:49:53.986Z,12.80
2022-11-01T07:52:20.993Z,13.00
2022-11-01T07:54:48.009Z,13.30
2022-11-01T07:57:15.026Z,13.50
2022-11-01T07:59:42.041Z,13.80
2022-11-01T08:02:09.352Z,14.10
2022-11-01T08:04:36.467Z,14.40
2022-11-01T08:07:03.572Z,14.60
2022-11-01T08:09:30.595Z,14.70
2022-11-01T08:11:57.639Z,14.80
2022-11-01T08:14:24.666Z,15.00
2022-11-01T08:16:55.664Z,15.00
2022-11-01T08:19:22.713Z,15.00
2022-11-01T08:21:52.763Z,15.00
2022-11-01T08:24:19.829Z,15.00
2022-11-01T08:26:46.848Z,15.10
2022-11-01T08:29:13.869Z,15.20
2022-11-01T08:31:41.313Z,15.30
2022-11-01T08:34:10.912Z,15.30
2022-11-01T08:36:41.539Z,15.50
2022-11-01T08:41:37.428Z,15.40
2022-11-01T08:44:04.807Z,15.40
2022-11-01T08:46:31.819Z,15.40
2022-11-01T08:49:00.422Z,15.30
2022-11-01T08:51:27.653Z,15.30
2022-11-01T08:53:55.583Z,15.30
2022-11-01T08:56:26.810Z,15.40
2022-11-01T08:58:54.024Z,15.50
2022-11-01T09:01:21.630Z,15.50
2022-11-01T09:03:48.786Z,15.50
2022-11-01T09:06:15.953Z,15.60
2022-11-01T09:08:42.995Z,15.60
2022-11-01T09:11:10.005Z,15.70
2022-11-01T09:13:37.040Z,15.70
2022-11-01T09:16:04.789Z,15.80
2022-11-01T09:18:32.012Z,15.90
2022-11-01T09:20:59.038Z,15.80
2022-11-01T09:23:26.053Z,15.90
2022-11-01T09:25:53.123Z,15.90
2022-11-01T09:28:20.133Z,15.90
2022-11-01T09:30:49.981Z,15.90
2022-11-01T09:33:23.618Z,15.90
2022-11-01T09:35:54.196Z,15.90
2022-11-01T09:38:25.895Z,15.90
2022-11-01T09:41:03.099Z,16.00
2022-11-01T09:43:31.550Z,16.00
2022-11-01T09:45:59.237Z,16.00
2022-11-01T09:48:27.400Z,16.10
2022-11-01T09:50:54.512Z,16.20
2022-11-01T09:53:22.301Z,16.20
2022-11-01T09:55:51.140Z,16.20
2022-11-01T09:58:21.804Z,16.30
2022-11-01T10:00:52.282Z,16.30
2022-11-01T10:03:33.535Z,16.40
2022-11-01T10:06:10.345Z,16.40
2022-11-01T10:08:46.712Z,16.40
2022-11-01T10:11:35.077Z,16.40
2022-11-01T10:14:08.660Z,16.50
2022-11-01T10:16:41.815Z,16.60
2022-11-01T10:19:14.644Z,16.60
2022-11-01T10:21:45.100Z,16.60
2022-11-01T10:24:32.800Z,16.70
2022-11-01T10:27:01.420Z,16.70
2022-11-01T10:29:30.951Z,16.70
2022-11-01T10:31:57.973Z,16.80
2022-11-01T10:34:25.994Z,16.90
2022-11-01T10:36:53.794Z,16.90
2022-11-01T10:42:15.357Z,17.00
2022-11-01T10:44:43.772Z,17.10
2022-11-01T10:47:12.546Z,17.20
2022-11-01T10:52:30.568Z,17.20
2022-11-01T10:54:57.750Z,17.30
2022-11-01T10:57:24.961Z,17.30
2022-11-01T10:59:52.075Z,17.40
2022-11-01T11:02:23.178Z,17.40
2022-11-01T11:04:50.545Z,17.50
2022-11-01T11:07:21.472Z,17.50
2022-11-01T11:09:51.218Z,17.40
2022-11-01T11:12:19.146Z,17.40
2022-11-01T11:15:06.312Z,17.40
2022-11-01T11:17:38.574Z,17.40
2022-11-01T11:20:06.647Z,17.40
2022-11-01T11:22:40.350Z,17.50
2022-11-01T11:25:17.289Z,17.50
2022-11-01T11:27:44.981Z,17.50
2022-11-01T11:30:14.707Z,17.50
2022-11-01T11:32:46.495Z,17.70
2022-11-01T11:35:13.493Z,17.70
2022-11-01T11:37:40.539Z,17.80
2022-11-01T11:40:19.141Z,18.00
2022-11-01T11:42:49.377Z,18.00
2022-11-01T11:45:19.566Z,18.20
2022-11-01T11:47:49.681Z,18.20
2022-11-01T11:50:19.782Z,18.10
2022-11-01T11:53:02.083Z,18.10
2022-11-01T11:55:38.247Z,17.90
2022-11-01T11:58:06.047Z,17.80
2022-11-01T12:00:33.973Z,17.80
2022-11-01T12:03:02.223Z,17.80
2022-11-01T12:05:29.567Z,17.80
2022-11-01T12:07:56.995Z,17.80
2022-11-01T12:10:27.016Z,17.70
2022-11-01T12:12:54.216Z,17.70
2022-11-01T12:15:25.302Z,17.60
2022-11-01T12:17:52.330Z,17.50
2022-11-01T12:20:20.099Z,17.50
2022-11-01T12:23:02.385Z,17.40
2022-11-01T12:25:29.461Z,17.40
2022-11-01T12:28:01.943Z,17.40
2022-11-01T12:30:33.332Z,17.40
2022-11-01T12:33:02.529Z,17.30
2022-11-01T12:35:30.850Z,17.30
2022-11-01T12:38:00.997Z,17.30
2022-11-01T12:40:29.976Z,17.20
2022-11-01T12:42:58.619Z,17.10
2022-11-01T12:45:30.048Z,17.10
2022-11-01T12:47:57.859Z,17.00
2022-11-01T12:50:26.766Z,17.00
2022-11-01T12:52:58.017Z,17.00
2022-11-01T12:55:25.036Z,17.00
2022-11-01T12:57:52.121Z,17.10
2022-11-01T13:00:19.656Z,17.10
2022-11-01T13:03:05.692Z,17.10
2022-11-01T13:05:41.680Z,17.20
2022-11-01T13:08:12.413Z,17.20
2022-11-01T13:13:23.704Z,17.20
2022-11-01T13:16:00.484Z,17.20
2022-11-01T13:18:33.769Z,17.10
2022-11-01T13:21:34.405Z,17.10
2022-11-01T13:24:20.329Z,17.10
2022-11-01T13:27:15.227Z,17.10
2022-11-01T13:29:52.872Z,17.10
2022-11-01T13:32:26.025Z,17.10
2022-11-01T13:35:05.078Z,17.00
2022-11-01T13:37:44.627Z,17.00
2022-11-01T13:40:17.419Z,17.00
2022-11-01T13:42:50.616Z,17.10
2022-11-01T13:45:33.110Z,17.20
2022-11-01T13:48:18.966Z,17.20
2022-11-01T13:50:49.058Z,17.20
2022-11-01T13:53:25.375Z,17.20
2022-11-01T13:55:55.812Z,17.30
2022-11-01T13:58:23.569Z,17.40
2022-11-01T14:00:51.570Z,17.40
2022-11-01T14:03:26.152Z,17.30
2022-11-01T14:06:12.064Z,17.20
2022-11-01T14:08:42.433Z,17.30
2022-11-01T14:11:13.622Z,17.40
2022-11-01T14:13:41.588Z,17.20
2022-11-01T14:16:14.690Z,17.20
2022-11-01T14:19:00.823Z,17.10
2022-11-01T14:21:29.073Z,17.10
2022-11-01T14:23:59.545Z,16.90
2022-11-01T14:26:44.763Z,16.90
2022-11-01T14:29:11.912Z,16.80
2022-11-01T14:31:38.942Z,16.70
2022-11-01T14:34:06.822Z,16.80
2022-11-01T14:36:34.683Z,16.70
2022-11-01T14:39:06.235Z,16.60
2022-11-01T14:41:34.089Z,16.60
2022-11-01T14:44:07.091Z,16.50
2022-11-01T14:46:34.656Z,16.50
2022-11-01T14:49:05.913Z,16.50
2022-11-01T14:51:39.391Z,16.40
2022-11-01T14:54:06.412Z,16.40
2022-11-01T14:56:39.779Z,16.30
2022-11-01T14:59:20.797Z,16.30
2022-11-01T15:01:48.526Z,16.20
2022-11-01T15:04:38.935Z,16.20
2022-11-01T15:07:27.754Z,16.20
2022-11-01T15:09:57.812Z,16.20
2022-11-01T15:12:25.465Z,16.20
2022-11-01T15:14:53.916Z,16.20
2022-11-01T15:17:21.825Z,16.10
2022-11-01T15:19:48.895Z,16.00
2022-11-01T15:22:16.175Z,16.10
2022-11-01T15:24:43.460Z,16.00
2022-11-01T15:27:14.074Z,16.00
2022-11-01T15:29:42.029Z,15.90
2022-11-01T15:32:20.606Z,15.90
2022-11-01T15:34:51.200Z,15.80
2022-11-01T15:37:22.350Z,15.80
2022-11-01T15:39:49.487Z,15.80
2022-11-01T15:42:17.166Z,15.80
2022-11-01T15:44:46.328Z,15.80
2022-11-01T15:47:15.598Z,15.80
2022-11-01T15:49:58.093Z,15.80
2022-11-01T15:52:26.236Z,15.70
2022-11-01T15:55:03.774Z,15.80
2022-11-01T15:57:38.147Z,15.80
2022-11-01T16:00:06.479Z,15.80
2022-11-01T16:02:43.818Z,15.80
2022-11-01T16:05:12.115Z,15.80
2022-11-01T16:07:39.169Z,15.80
2022-11-01T16:10:06.613Z,15.70
2022-11-01T16:12:34.201Z,15.70
2022-11-01T16:15:20.176Z,15.70
2022-11-01T16:17:47.189Z,15.60
2022-11-01T16:20:30.733Z,15.60
2022-11-01T16:23:01.479Z,15.60
2022-11-01T16:25:29.438Z,15.50
2022-11-01T16:28:00.850Z,15.60
2022-11-01T16:30:32.009Z,15.50
2022-11-01T16:33:18.536Z,15.50
2022-11-01T16:35:45.965Z,15.40
2022-11-01T16:38:31.796Z,15.40
2022-11-01T16:41:02.890Z,15.40
2022-11-01T16:43:30.479Z,15.30
2022-11-01T16:45:57.610Z,15.30
2022-11-01T16:48:28.865Z,15.30
2022-11-01T16:50:56.356Z,15.40
2022-11-01T16:53:26.804Z,15.40
2022-11-01T16:56:23.307Z,15.30
2022-11-01T16:58:49.682Z,15.20
2022-11-01T17:01:21.090Z,15.20
2022-11-01T17:03:48.440Z,15.20
2022-11-01T17:06:15.594Z,15.20
2022-11-01T17:08:42.649Z,15.20
2022-11-01T17:11:09.693Z,15.20
2022-11-01T17:13:36.992Z,15.20
2022-11-01T17:16:04.190Z,15.20
2022-11-01T17:18:32.688Z,15.20
2022-11-01T17:20:59.865Z,15.20
2022-11-01T17:23:26.960Z,15.10
2022-11-01T17:25:54.045Z,15.10
2022-11-01T17:28:24.808Z,15.20
2022-11-01T17:30:52.104Z,15.20
2022-11-01T17:33:20.325Z,15.20
2022-11-01T17:35:47.577Z,15.20
2022-11-01T17:38:15.426Z,15.10
2022-11-01T17:40:45.205Z,15.10
2022-11-01T17:43:16.492Z,15.10
2022-11-01T17:45:43.999Z,15.10
2022-11-01T17:48:11.160Z,15.10
2022-11-01T17:50:38.420Z,15.10
2022-11-01T17:53:06.002Z,15.10
2022-11-01T17:55:34.539Z,15.00
2022-11-01T17:58:01.749Z,15.00
2022-11-01T18:00:29.323Z,15.00
2022-11-01T18:02:56.437Z,15.00
2022-11-01T18:05:23.460Z,15.00
2022-11-01T18:07:50.689Z,14.90
2022-11-01T18:10:30.275Z,14.90
2022-11-01T18:13:00.364Z,15.00
2022-11-01T18:15:29.933Z,14.90
2022-11-01T18:18:03.660Z,14.90
2022-11-01T18:20:48.584Z,14.80
2022-11-01T18:23:16.754Z,14.80
2022-11-01T18:25:44.335Z,14.70
2022-11-01T18:28:13.446Z,14.60
2022-11-01T18:30:44.144Z,14.40
2022-11-01T18:33:25.174Z,14.40
2022-11-01T18:36:03.361Z,14.30
2022-11-01T18:38:32.529Z,14.20
2022-11-01T18:41:00.199Z,14.10
2022-11-01T18:43:28.561Z,14.10
2022-11-01T18:46:23.259Z,14.10
2022-11-01T18:48:42.706Z,14.10
2022-11-01T18:51:18.291Z,14.10
2022-11-01T18:53:45.317Z,14.10
2022-11-01T18:56:12.331Z,14.00
2022-11-01T18:58:39.349Z,14.00
2022-11-01T19:01:24.228Z,13.90
2022-11-01T19:03:59.817Z,13.90
2022-11-01T19:06:27.201Z,13.90
2022-11-01T19:08:55.353Z,13.80
2022-11-01T19:11:23.253Z,13.80
2022-11-01T19:13:50.433Z,13.80
2022-11-01T19:18:50.080Z,13.80
2022-11-01T19:21:18.484Z,13.80
2022-11-01T19:23:54.874Z,13.70
2022-11-01T19:26:27.268Z,13.60
2022-11-01T19:28:54.337Z,13.50
2022-11-01T19:31:35.924Z,13.60
2022-11-01T19:34:03.637Z,13.50
2022-11-01T19:36:36.358Z,13.50
2022-11-01T19:39:11.585Z,13.50
2022-11-01T19:41:38.932Z,13.40
2022-11-01T19:44:10.760Z,13.30
2022-11-01T19:46:37.811Z,13.30
2022-11-01T19:49:08.228Z,13.30
2022-11-01T19:51:35.289Z,13.20
2022-11-01T19:54:02.325Z,13.10
2022-11-01T19:56:29.801Z,13.10
2022-11-01T19:59:00.054Z,13.00
2022-11-01T20:01:37.444Z,13.00
2022-11-01T20:04:10.028Z,12.80
2022-11-01T20:06:48.608Z,12.80
2022-11-01T20:09:19.875Z,12.70
2022-11-01T20:11:47.042Z,12.60
2022-11-01T20:14:14.204Z,12.50
2022-11-01T20:16:41.524Z,12.50
2022-11-01T20:19:10.870Z,12.40
2022-11-01T20:21:40.437Z,12.30
2022-11-01T20:24:07.642Z,12.20
2022-11-01T20:26:34.963Z,12.10
2022-11-01T20:29:02.146Z,12.00
2022-11-01T20:31:29.345Z,12.00
2022-11-01T20:33:56.862Z,12.00
2022-11-01T20:36:24.314Z,12.00
2022-11-01T20:38:51.623Z,12.00
2022-11-01T20:41:19.266Z,11.90
2022-11-01T20:43:46.433Z,11.90
2022-11-01T20:46:13.632Z,11.80
2022-11-01T20:48:40.834Z,11.80
2022-11-01T20:51:08.087Z,11.80
2022-11-01T20:53:35.196Z,11.70
2022-11-01T20:56:02.291Z,11.70
2022-11-01T20:58:29.422Z,11.70
2022-11-01T21:00:56.795Z,11.70
2022-11-01T21:03:26.924Z,11.70
2022-11-01T21:05:54.144Z,11.70
2022-11-01T21:08:24.602Z,11.70
2022-11-01T21:10:54.667Z,11.60
2022-11-01T21:13:27.876Z,11.70
2022-11-01T21:15:55.810Z,11.70
2022-11-01T21:18:33.629Z,11.60
2022-11-01T21:21:15.974Z,11.60
2022-11-01T21:23:43.173Z,11.60
2022-11-01T21:26:20.292Z,11.50
2022-11-01T21:28:47.312Z,11.50
2022-11-01T21:31:14.402Z,11.50
2022-11-01T21:33:42.299Z,11.50
2022-11-01T21:36:12.096Z,11.40
2022-11-01T21:38:40.204Z,11.30
2022-11-01T21:41:15.470Z,11.30
2022-11-01T21:43:42.500Z,11.30
2022-11-01T21:46:16.541Z,11.30
2022-11-01T21:48:43.573Z,11.30
2022-11-01T21:51:10.601Z,11.20
2022-11-01T21:53:39.425Z,11.20
2022-11-01T21:56:06.545Z,11.10
2022-11-01T21:58:33.582Z,11.00
2022-11-01T22:01:00.618Z,11.00
2022-11-01T22:03:27.660Z,11.00
2022-11-01T22:05:54.715Z,11.00
2022-11-01T22:08:21.715Z,11.00
2022-11-01T22:10:48.769Z,10.90
2022-11-01T22:13:15.993Z,11.00
2022-11-01T22:15:43.016Z,10.90
2022-11-01T22:18:10.041Z,10.90
2022-11-01T22:20:37.074Z,10.80
2022-11-01T22:23:04.388Z,10.80
2022-11-01T22:25:32.361Z,10.70
2022-11-01T22:27:59.385Z,10.70
2022-11-01T22:30:26.417Z,10.80
2022-11-01T22:32:53.419Z,10.70
2022-11-01T22:35:21.273Z,10.70
2022-11-01T22:37:48.413Z,10.70
2022-11-01T22:40:16.501Z,10.60
2022-11-01T22:42:43.567Z,10.60
2022-11-01T22:45:14.718Z,10.50
2022-11-01T22:47:41.787Z,10.50
2022-11-01T22:50:10.360Z,10.50
2022-11-01T22:52:38.778Z,10.40
2022-11-01T22:55:12.516Z,10.40
2022-11-01T22:57:41.757Z,10.40
2022-11-01T23:00:31.114Z,10.40
2022-11-01T23:03:10.429Z,10.30
2022-11-01T23:05:37.431Z,10.20
2022-11-01T23:08:16.682Z,10.20
2022-11-01T23:10:44.148Z,10.20
2022-11-01T23:13:30.023Z,10.20
2022-11-01T23:15:57.733Z,10.10
2022-11-01T23:18:27.718Z,10.10
2022-11-01T23:20:55.380Z,10.10
2022-11-01T23:23:22.517Z,10.00
2022-11-01T23:25:49.728Z,9.90
2022-11-01T23:28:16.924Z,10.00
2022-11-01T23:30:44.061Z,9.90
2022-11-01T23:33:15.290Z,10.00
2022-11-01T23:35:43.696Z,10.00
2022-11-01T23:38:16.293Z,10.00
2022-11-01T23:40:43.393Z,10.00
2022-11-01T23:43:39.873Z,10.10
2022-11-01T23:46:07.059Z,10.10
2022-11-01T23:48:34.090Z,10.10
2022-11-01T23:51:01.146Z,10.10
2022-11-01T23:53:35.377Z,10.10
2022-11-01T23:56:03.296Z,10.10
2022-11-01T23:58:31.047Z,10.10
